sensor_id;sensor_type;location;lat;lon;timestamp;P1;durP1;ratioP1;P2;durP2;ratioP2
24901;SDS011;31328;51.402;0.016;2022-12-07T00:01:11;18.67;;;8.03;;
24901;SDS011;31328;51.402;0.016;2022-12-07T00:03:40;10.37;;;6.40;;
24901;SDS011;31328;51.402;0.016;2022-12-07T00:06:09;17.77;;;7.67;;
24901;SDS011;31328;51.402;0.016;2022-12-07T00:08:37;14.80;;;7.17;;
24901;SDS011;31328;51.402;0.016;2022-12-07T00:11:04;16.07;;;6.50;;
24901;SDS011;31328;51.402;0.016;2022-12-07T00:13:31;16.10;;;6.43;;
24901;SDS011;31328;51.402;0.016;2022-12-07T00:16:02;14.63;;;6.97;;
24901;SDS011;31328;51.402;0.016;2022-12-07T00:18:31;13.53;;;6.50;;
24901;SDS011;31328;51.402;0.016;2022-12-07T00:21:01;14.90;;;6.80;;
24901;SDS011;31328;51.402;0.016;2022-12-07T00:23:29;15.23;;;6.83;;
24901;SDS011;31328;51.402;0.016;2022-12-07T00:25:56;11.97;;;6.40;;
24901;SDS011;31328;51.402;0.016;2022-12-07T00:28:28;16.13;;;7.13;;
24901;SDS011;31328;51.402;0.016;2022-12-07T00:30:59;15.27;;;6.97;;
24901;SDS011;31328;51.402;0.016;2022-12-07T00:33:27;13.73;;;6.67;;
24901;SDS011;31328;51.402;0.016;2022-12-07T00:35:58;10.43;;;6.43;;
24901;SDS011;31328;51.402;0.016;2022-12-07T00:38:24;16.17;;;6.53;;
24901;SDS011;31328;51.402;0.016;2022-12-07T00:40:56;13.40;;;6.67;;
24901;SDS011;31328;51.402;0.016;2022-12-07T00:43:24;12.23;;;6.73;;
24901;SDS011;31328;51.402;0.016;2022-12-07T00:45:50;13.83;;;7.80;;
24901;SDS011;31328;51.402;0.016;2022-12-07T00:48:17;13.23;;;6.33;;
24901;SDS011;31328;51.402;0.016;2022-12-07T00:50:43;16.37;;;7.13;;
24901;SDS011;31328;51.402;0.016;2022-12-07T00:53:09;13.77;;;6.03;;
24901;SDS011;31328;51.402;0.016;2022-12-07T00:55:36;12.53;;;6.77;;
24901;SDS011;31328;51.402;0.016;2022-12-07T00:58:02;14.63;;;6.73;;
24901;SDS011;31328;51.402;0.016;2022-12-07T01:00:29;16.83;;;7.07;;
24901;SDS011;31328;51.402;0.016;2022-12-07T01:02:56;12.17;;;6.90;;
24901;SDS011;31328;51.402;0.016;2022-12-07T01:05:22;12.97;;;6.80;;
24901;SDS011;31328;51.402;0.016;2022-12-07T01:07:49;12.57;;;6.50;;
24901;SDS011;31328;51.402;0.016;2022-12-07T01:10:15;12.57;;;6.47;;
24901;SDS011;31328;51.402;0.016;2022-12-07T01:12:41;16.17;;;6.50;;
24901;SDS011;31328;51.402;0.016;2022-12-07T01:15:08;17.70;;;7.20;;
24901;SDS011;31328;51.402;0.016;2022-12-07T01:17:34;14.50;;;6.30;;
24901;SDS011;31328;51.402;0.016;2022-12-07T01:20:01;12.87;;;6.53;;
24901;SDS011;31328;51.402;0.016;2022-12-07T01:22:28;12.33;;;6.03;;
24901;SDS011;31328;51.402;0.016;2022-12-07T01:24:54;11.80;;;5.67;;
24901;SDS011;31328;51.402;0.016;2022-12-07T01:27:21;12.23;;;6.90;;
24901;SDS011;31328;51.402;0.016;2022-12-07T01:29:47;11.13;;;6.40;;
24901;SDS011;31328;51.402;0.016;2022-12-07T01:32:13;14.50;;;7.40;;
24901;SDS011;31328;51.402;0.016;2022-12-07T01:34:39;11.47;;;6.93;;
24901;SDS011;31328;51.402;0.016;2022-12-07T01:37:06;16.37;;;7.10;;
24901;SDS011;31328;51.402;0.016;2022-12-07T01:39:32;15.07;;;7.43;;
24901;SDS011;31328;51.402;0.016;2022-12-07T01:41:58;11.30;;;6.17;;
24901;SDS011;31328;51.402;0.016;2022-12-07T01:44:25;14.03;;;6.93;;
24901;SDS011;31328;51.402;0.016;2022-12-07T01:46:56;12.20;;;6.53;;
24901;SDS011;31328;51.402;0.016;2022-12-07T01:49:38;13.67;;;7.90;;
24901;SDS011;31328;51.402;0.016;2022-12-07T01:52:16;13.03;;;7.60;;
24901;SDS011;31328;51.402;0.016;2022-12-07T01:54:47;15.60;;;6.67;;
24901;SDS011;31328;51.402;0.016;2022-12-07T01:57:16;13.10;;;6.13;;
24901;SDS011;31328;51.402;0.016;2022-12-07T01:59:44;15.27;;;6.80;;
24901;SDS011;31328;51.402;0.016;2022-12-07T02:02:19;15.90;;;6.27;;
24901;SDS011;31328;51.402;0.016;2022-12-07T02:04:52;11.70;;;6.53;;
24901;SDS011;31328;51.402;0.016;2022-12-07T02:07:19;11.90;;;6.77;;
24901;SDS011;31328;51.402;0.016;2022-12-07T02:09:46;16.40;;;6.90;;
24901;SDS011;31328;51.402;0.016;2022-12-07T02:12:13;13.07;;;6.77;;
24901;SDS011;31328;51.402;0.016;2022-12-07T02:14:39;12.40;;;6.40;;
24901;SDS011;31328;51.402;0.016;2022-12-07T02:17:40;16.83;;;6.33;;
24901;SDS011;31328;51.402;0.016;2022-12-07T02:20:13;14.77;;;7.30;;
24901;SDS011;31328;51.402;0.016;2022-12-07T02:23:00;12.77;;;5.80;;
24901;SDS011;31328;51.402;0.016;2022-12-07T02:29:53;14.50;;;7.30;;
24901;SDS011;31328;51.402;0.016;2022-12-07T02:32:03;16.43;;;7.90;;
24901;SDS011;31328;51.402;0.016;2022-12-07T02:34:42;12.90;;;6.33;;
24901;SDS011;31328;51.402;0.016;2022-12-07T02:37:20;16.17;;;6.53;;
24901;SDS011;31328;51.402;0.016;2022-12-07T02:40:39;15.13;;;7.57;;
24901;SDS011;31328;51.402;0.016;2022-12-07T02:42:51;15.98;;;5.57;;
24901;SDS011;31328;51.402;0.016;2022-12-07T02:45:32;14.70;;;6.00;;
24901;SDS011;31328;51.402;0.016;2022-12-07T02:48:02;14.23;;;5.87;;
24901;SDS011;31328;51.402;0.016;2022-12-07T02:50:30;15.87;;;6.90;;
24901;SDS011;31328;51.402;0.016;2022-12-07T02:52:57;14.77;;;6.90;;
24901;SDS011;31328;51.402;0.016;2022-12-07T02:55:25;14.53;;;7.60;;
24901;SDS011;31328;51.402;0.016;2022-12-07T03:01:19;13.10;;;7.07;;
24901;SDS011;31328;51.402;0.016;2022-12-07T03:03:40;13.17;;;7.30;;
24901;SDS011;31328;51.402;0.016;2022-12-07T03:06:18;14.97;;;7.40;;
24901;SDS011;31328;51.402;0.016;2022-12-07T03:11:56;12.37;;;7.00;;
24901;SDS011;31328;51.402;0.016;2022-12-07T03:14:32;16.70;;;8.13;;
24901;SDS011;31328;51.402;0.016;2022-12-07T03:17:07;17.50;;;8.77;;
24901;SDS011;31328;51.402;0.016;2022-12-07T03:19:41;12.60;;;6.87;;
24901;SDS011;31328;51.402;0.016;2022-12-07T03:22:11;13.73;;;8.03;;
24901;SDS011;31328;51.402;0.016;2022-12-07T03:27:42;17.97;;;7.37;;
24901;SDS011;31328;51.402;0.016;2022-12-07T03:30:27;18.17;;;7.30;;
24901;SDS011;31328;51.402;0.016;2022-12-07T03:33:12;14.77;;;7.93;;
24901;SDS011;31328;51.402;0.016;2022-12-07T03:35:45;15.73;;;7.07;;
24901;SDS011;31328;51.402;0.016;2022-12-07T03:40:58;13.37;;;6.60;;
24901;SDS011;31328;51.402;0.016;2022-12-07T03:43:31;16.17;;;6.53;;
24901;SDS011;31328;51.402;0.016;2022-12-07T03:49:09;13.83;;;7.70;;
24901;SDS011;31328;51.402;0.016;2022-12-07T03:51:54;12.63;;;6.80;;
24901;SDS011;31328;51.402;0.016;2022-12-07T03:54:36;14.47;;;6.77;;
24901;SDS011;31328;51.402;0.016;2022-12-07T03:57:09;12.07;;;7.33;;
24901;SDS011;31328;51.402;0.016;2022-12-07T03:59:38;10.60;;;6.67;;
24901;SDS011;31328;51.402;0.016;2022-12-07T04:02:06;19.53;;;8.20;;
24901;SDS011;31328;51.402;0.016;2022-12-07T04:04:33;13.80;;;6.27;;
24901;SDS011;31328;51.402;0.016;2022-12-07T04:07:00;14.73;;;7.40;;
24901;SDS011;31328;51.402;0.016;2022-12-07T04:09:26;10.87;;;7.60;;
24901;SDS011;31328;51.402;0.016;2022-12-07T04:11:52;11.77;;;6.83;;
24901;SDS011;31328;51.402;0.016;2022-12-07T04:14:19;13.13;;;7.00;;
24901;SDS011;31328;51.402;0.016;2022-12-07T04:16:49;14.37;;;7.03;;
24901;SDS011;31328;51.402;0.016;2022-12-07T04:19:22;12.30;;;7.07;;
24901;SDS011;31328;51.402;0.016;2022-12-07T04:21:54;12.50;;;6.10;;
24901;SDS011;31328;51.402;0.016;2022-12-07T04:24:21;16.93;;;6.83;;
24901;SDS011;31328;51.402;0.016;2022-12-07T04:26:48;13.67;;;7.13;;
24901;SDS011;31328;51.402;0.016;2022-12-07T04:29:14;13.67;;;6.77;;
24901;SDS011;31328;51.402;0.016;2022-12-07T04:31:42;14.37;;;7.07;;
24901;SDS011;31328;51.402;0.016;2022-12-07T04:34:09;9.40;;;6.60;;
24901;SDS011;31328;51.402;0.016;2022-12-07T04:36:35;11.20;;;6.57;;
24901;SDS011;31328;51.402;0.016;2022-12-07T04:39:03;10.57;;;6.30;;
24901;SDS011;31328;51.402;0.016;2022-12-07T04:41:30;12.13;;;6.07;;
24901;SDS011;31328;51.402;0.016;2022-12-07T04:44:01;11.73;;;6.67;;
24901;SDS011;31328;51.402;0.016;2022-12-07T04:46:30;12.57;;;6.03;;
24901;SDS011;31328;51.402;0.016;2022-12-07T04:48:57;11.20;;;5.77;;
24901;SDS011;31328;51.402;0.016;2022-12-07T04:51:24;13.27;;;7.70;;
24901;SDS011;31328;51.402;0.016;2022-12-07T04:53:53;10.57;;;5.93;;
24901;SDS011;31328;51.402;0.016;2022-12-07T04:56:21;11.53;;;5.57;;
24901;SDS011;31328;51.402;0.016;2022-12-07T04:58:48;10.00;;;5.50;;
24901;SDS011;31328;51.402;0.016;2022-12-07T05:01:15;12.40;;;4.93;;
24901;SDS011;31328;51.402;0.016;2022-12-07T05:03:42;9.53;;;5.03;;
24901;SDS011;31328;51.402;0.016;2022-12-07T05:06:10;10.97;;;5.87;;
24901;SDS011;31328;51.402;0.016;2022-12-07T05:08:37;11.30;;;5.27;;
24901;SDS011;31328;51.402;0.016;2022-12-07T05:11:04;7.60;;;5.10;;
24901;SDS011;31328;51.402;0.016;2022-12-07T05:13:32;10.63;;;4.67;;
24901;SDS011;31328;51.402;0.016;2022-12-07T05:15:58;7.93;;;4.97;;
24901;SDS011;31328;51.402;0.016;2022-12-07T05:18:25;10.60;;;4.63;;
24901;SDS011;31328;51.402;0.016;2022-12-07T05:20:52;11.43;;;4.93;;
24901;SDS011;31328;51.402;0.016;2022-12-07T05:23:18;11.43;;;4.93;;
24901;SDS011;31328;51.402;0.016;2022-12-07T05:25:46;7.80;;;4.63;;
24901;SDS011;31328;51.402;0.016;2022-12-07T05:28:12;11.07;;;5.27;;
24901;SDS011;31328;51.402;0.016;2022-12-07T05:30:38;7.37;;;5.10;;
24901;SDS011;31328;51.402;0.016;2022-12-07T05:33:05;9.87;;;4.97;;
24901;SDS011;31328;51.402;0.016;2022-12-07T05:35:32;8.53;;;4.63;;
24901;SDS011;31328;51.402;0.016;2022-12-07T05:37:58;12.97;;;5.67;;
24901;SDS011;31328;51.402;0.016;2022-12-07T05:40:25;12.93;;;6.10;;
24901;SDS011;31328;51.402;0.016;2022-12-07T05:42:51;11.23;;;5.20;;
24901;SDS011;31328;51.402;0.016;2022-12-07T05:45:17;11.23;;;5.13;;
24901;SDS011;31328;51.402;0.016;2022-12-07T05:47:44;11.00;;;6.43;;
24901;SDS011;31328;51.402;0.016;2022-12-07T05:50:10;12.03;;;6.37;;
24901;SDS011;31328;51.402;0.016;2022-12-07T05:52:37;9.30;;;5.20;;
24901;SDS011;31328;51.402;0.016;2022-12-07T05:55:03;8.80;;;5.23;;
24901;SDS011;31328;51.402;0.016;2022-12-07T05:57:32;10.87;;;5.77;;
24901;SDS011;31328;51.402;0.016;2022-12-07T05:59:59;10.57;;;6.60;;
24901;SDS011;31328;51.402;0.016;2022-12-07T06:02:25;8.87;;;5.80;;
24901;SDS011;31328;51.402;0.016;2022-12-07T06:04:52;10.70;;;4.93;;
24901;SDS011;31328;51.402;0.016;2022-12-07T06:07:18;10.13;;;5.70;;
24901;SDS011;31328;51.402;0.016;2022-12-07T06:09:45;9.27;;;5.13;;
24901;SDS011;31328;51.402;0.016;2022-12-07T06:12:11;11.03;;;5.20;;
24901;SDS011;31328;51.402;0.016;2022-12-07T06:14:57;11.17;;;5.57;;
24901;SDS011;31328;51.402;0.016;2022-12-07T06:17:24;10.77;;;5.10;;
24901;SDS011;31328;51.402;0.016;2022-12-07T06:19:50;8.87;;;5.03;;
24901;SDS011;31328;51.402;0.016;2022-12-07T06:22:17;9.93;;;5.53;;
24901;SDS011;31328;51.402;0.016;2022-12-07T06:24:43;9.77;;;5.37;;
24901;SDS011;31328;51.402;0.016;2022-12-07T06:27:10;11.90;;;6.07;;
24901;SDS011;31328;51.402;0.016;2022-12-07T06:29:36;10.13;;;6.20;;
24901;SDS011;31328;51.402;0.016;2022-12-07T06:32:03;9.90;;;5.57;;
24901;SDS011;31328;51.402;0.016;2022-12-07T06:34:30;9.70;;;5.10;;
24901;SDS011;31328;51.402;0.016;2022-12-07T06:36:56;12.60;;;5.90;;
24901;SDS011;31328;51.402;0.016;2022-12-07T06:39:25;9.43;;;5.17;;
24901;SDS011;31328;51.402;0.016;2022-12-07T06:41:52;10.30;;;5.13;;
24901;SDS011;31328;51.402;0.016;2022-12-07T06:44:19;10.63;;;5.47;;
24901;SDS011;31328;51.402;0.016;2022-12-07T06:46:46;9.20;;;5.27;;
24901;SDS011;31328;51.402;0.016;2022-12-07T06:49:12;11.90;;;5.40;;
24901;SDS011;31328;51.402;0.016;2022-12-07T06:51:39;9.80;;;4.47;;
24901;SDS011;31328;51.402;0.016;2022-12-07T06:54:13;10.87;;;5.30;;
24901;SDS011;31328;51.402;0.016;2022-12-07T06:56:40;11.40;;;5.37;;
24901;SDS011;31328;51.402;0.016;2022-12-07T06:59:07;10.83;;;4.80;;
24901;SDS011;31328;51.402;0.016;2022-12-07T07:01:34;8.27;;;5.20;;
24901;SDS011;31328;51.402;0.016;2022-12-07T07:04:01;9.83;;;5.60;;
24901;SDS011;31328;51.402;0.016;2022-12-07T07:06:28;10.77;;;5.20;;
24901;SDS011;31328;51.402;0.016;2022-12-07T07:08:54;11.03;;;5.57;;
24901;SDS011;31328;51.402;0.016;2022-12-07T07:11:20;11.10;;;6.23;;
24901;SDS011;31328;51.402;0.016;2022-12-07T07:13:46;8.90;;;5.40;;
24901;SDS011;31328;51.402;0.016;2022-12-07T07:16:13;10.47;;;4.90;;
24901;SDS011;31328;51.402;0.016;2022-12-07T07:18:40;7.03;;;5.00;;
24901;SDS011;31328;51.402;0.016;2022-12-07T07:21:06;12.77;;;6.30;;
24901;SDS011;31328;51.402;0.016;2022-12-07T07:23:32;11.93;;;5.33;;
24901;SDS011;31328;51.402;0.016;2022-12-07T07:25:59;10.80;;;5.60;;
24901;SDS011;31328;51.402;0.016;2022-12-07T07:28:25;11.30;;;6.30;;
24901;SDS011;31328;51.402;0.016;2022-12-07T07:30:52;12.90;;;4.83;;
24901;SDS011;31328;51.402;0.016;2022-12-07T07:33:18;9.60;;;4.43;;
24901;SDS011;31328;51.402;0.016;2022-12-07T07:35:44;11.57;;;4.70;;
24901;SDS011;31328;51.402;0.016;2022-12-07T07:38:11;9.03;;;5.23;;
24901;SDS011;31328;51.402;0.016;2022-12-07T07:40:37;11.80;;;5.57;;
24901;SDS011;31328;51.402;0.016;2022-12-07T07:43:04;14.03;;;6.27;;
24901;SDS011;31328;51.402;0.016;2022-12-07T07:45:30;11.63;;;5.80;;
24901;SDS011;31328;51.402;0.016;2022-12-07T07:47:57;10.83;;;5.33;;
24901;SDS011;31328;51.402;0.016;2022-12-07T07:50:24;12.13;;;4.97;;
24901;SDS011;31328;51.402;0.016;2022-12-07T07:52:50;12.00;;;5.00;;
24901;SDS011;31328;51.402;0.016;2022-12-07T07:55:16;8.50;;;4.33;;
24901;SDS011;31328;51.402;0.016;2022-12-07T07:57:43;9.37;;;5.17;;
24901;SDS011;31328;51.402;0.016;2022-12-07T08:00:13;10.10;;;5.00;;
24901;SDS011;31328;51.402;0.016;2022-12-07T08:02:42;10.40;;;4.53;;
24901;SDS011;31328;51.402;0.016;2022-12-07T08:05:10;8.97;;;4.17;;
24901;SDS011;31328;51.402;0.016;2022-12-07T08:07:37;6.97;;;4.40;;
24901;SDS011;31328;51.402;0.016;2022-12-07T08:10:04;9.10;;;4.47;;
24901;SDS011;31328;51.402;0.016;2022-12-07T08:12:31;10.63;;;5.27;;
24901;SDS011;31328;51.402;0.016;2022-12-07T08:15:02;10.67;;;4.80;;
24901;SDS011;31328;51.402;0.016;2022-12-07T08:17:29;13.17;;;4.17;;
24901;SDS011;31328;51.402;0.016;2022-12-07T08:19:55;10.83;;;5.27;;
24901;SDS011;31328;51.402;0.016;2022-12-07T08:22:22;8.03;;;4.43;;
24901;SDS011;31328;51.402;0.016;2022-12-07T08:24:48;9.60;;;4.57;;
24901;SDS011;31328;51.402;0.016;2022-12-07T08:27:14;9.93;;;4.73;;
24901;SDS011;31328;51.402;0.016;2022-12-07T08:29:40;13.40;;;5.67;;
24901;SDS011;31328;51.402;0.016;2022-12-07T08:32:07;10.23;;;5.17;;
24901;SDS011;31328;51.402;0.016;2022-12-07T08:34:33;9.70;;;5.47;;
24901;SDS011;31328;51.402;0.016;2022-12-07T08:37:00;9.97;;;5.67;;
24901;SDS011;31328;51.402;0.016;2022-12-07T08:39:26;8.67;;;5.13;;
24901;SDS011;31328;51.402;0.016;2022-12-07T08:41:53;8.93;;;5.77;;
24901;SDS011;31328;51.402;0.016;2022-12-07T08:44:19;15.77;;;5.80;;
24901;SDS011;31328;51.402;0.016;2022-12-07T08:46:46;11.87;;;5.00;;
24901;SDS011;31328;51.402;0.016;2022-12-07T08:49:22;8.60;;;4.70;;
24901;SDS011;31328;51.402;0.016;2022-12-07T08:51:55;8.93;;;4.77;;
24901;SDS011;31328;51.402;0.016;2022-12-07T08:54:21;7.77;;;4.57;;
24901;SDS011;31328;51.402;0.016;2022-12-07T08:56:48;6.93;;;4.20;;
24901;SDS011;31328;51.402;0.016;2022-12-07T08:59:16;15.17;;;5.33;;
24901;SDS011;31328;51.402;0.016;2022-12-07T09:01:43;8.70;;;5.00;;
24901;SDS011;31328;51.402;0.016;2022-12-07T09:04:10;7.63;;;4.00;;
24901;SDS011;31328;51.402;0.016;2022-12-07T09:06:36;8.80;;;4.47;;
24901;SDS011;31328;51.402;0.016;2022-12-07T09:09:03;7.20;;;4.07;;
24901;SDS011;31328;51.402;0.016;2022-12-07T09:11:30;11.23;;;5.27;;
24901;SDS011;31328;51.402;0.016;2022-12-07T09:13:56;7.93;;;4.43;;
24901;SDS011;31328;51.402;0.016;2022-12-07T09:16:22;9.17;;;5.00;;
24901;SDS011;31328;51.402;0.016;2022-12-07T09:18:49;8.73;;;4.93;;
24901;SDS011;31328;51.402;0.016;2022-12-07T09:21:16;8.67;;;3.80;;
24901;SDS011;31328;51.402;0.016;2022-12-07T09:23:42;8.60;;;4.90;;
24901;SDS011;31328;51.402;0.016;2022-12-07T09:26:08;9.50;;;4.63;;
24901;SDS011;31328;51.402;0.016;2022-12-07T09:28:35;8.07;;;3.70;;
24901;SDS011;31328;51.402;0.016;2022-12-07T09:31:02;10.13;;;4.03;;
24901;SDS011;31328;51.402;0.016;2022-12-07T09:33:28;7.07;;;4.07;;
24901;SDS011;31328;51.402;0.016;2022-12-07T09:35:55;10.77;;;4.20;;
24901;SDS011;31328;51.402;0.016;2022-12-07T09:38:21;10.97;;;4.67;;
24901;SDS011;31328;51.402;0.016;2022-12-07T09:40:50;9.27;;;4.40;;
24901;SDS011;31328;51.402;0.016;2022-12-07T09:43:17;10.27;;;4.53;;
24901;SDS011;31328;51.402;0.016;2022-12-07T09:45:54;9.17;;;4.73;;
24901;SDS011;31328;51.402;0.016;2022-12-07T09:48:23;9.03;;;4.57;;
24901;SDS011;31328;51.402;0.016;2022-12-07T09:50:58;9.27;;;4.20;;
24901;SDS011;31328;51.402;0.016;2022-12-07T09:53:30;8.40;;;4.30;;
24901;SDS011;31328;51.402;0.016;2022-12-07T09:56:00;9.05;;;4.68;;
24901;SDS011;31328;51.402;0.016;2022-12-07T09:58:27;7.13;;;4.10;;
24901;SDS011;31328;51.402;0.016;2022-12-07T10:00:56;6.60;;;4.20;;
24901;SDS011;31328;51.402;0.016;2022-12-07T10:03:27;9.70;;;4.83;;
24901;SDS011;31328;51.402;0.016;2022-12-07T10:05:54;10.30;;;4.40;;
24901;SDS011;31328;51.402;0.016;2022-12-07T10:08:22;8.60;;;4.10;;
24901;SDS011;31328;51.402;0.016;2022-12-07T10:10:52;8.77;;;4.67;;
24901;SDS011;31328;51.402;0.016;2022-12-07T10:13:20;6.83;;;4.83;;
24901;SDS011;31328;51.402;0.016;2022-12-07T10:15:58;8.37;;;4.07;;
24901;SDS011;31328;51.402;0.016;2022-12-07T10:18:32;7.53;;;4.40;;
24901;SDS011;31328;51.402;0.016;2022-12-07T10:23:38;7.03;;;4.10;;
24901;SDS011;31328;51.402;0.016;2022-12-07T10:28:55;9.97;;;4.10;;
24901;SDS011;31328;51.402;0.016;2022-12-07T10:31:24;12.50;;;4.70;;
24901;SDS011;31328;51.402;0.016;2022-12-07T10:39:02;7.80;;;4.47;;
24901;SDS011;31328;51.402;0.016;2022-12-07T10:41:29;9.37;;;4.70;;
24901;SDS011;31328;51.402;0.016;2022-12-07T10:43:56;8.10;;;4.27;;
24901;SDS011;31328;51.402;0.016;2022-12-07T10:46:43;12.10;;;4.53;;
24901;SDS011;31328;51.402;0.016;2022-12-07T10:52:30;8.90;;;4.30;;
24901;SDS011;31328;51.402;0.016;2022-12-07T11:00:44;9.13;;;5.10;;
24901;SDS011;31328;51.402;0.016;2022-12-07T11:03:25;8.53;;;4.47;;
24901;SDS011;31328;51.402;0.016;2022-12-07T11:06:16;6.37;;;4.03;;
24901;SDS011;31328;51.402;0.016;2022-12-07T11:09:39;11.37;;;4.63;;
24901;SDS011;31328;51.402;0.016;2022-12-07T11:18:18;10.57;;;5.43;;
24901;SDS011;31328;51.402;0.016;2022-12-07T11:26:47;7.17;;;5.00;;
24901;SDS011;31328;51.402;0.016;2022-12-07T11:32:14;10.77;;;4.97;;
24901;SDS011;31328;51.402;0.016;2022-12-07T11:37:30;9.50;;;4.60;;
24901;SDS011;31328;51.402;0.016;2022-12-07T11:40:11;7.90;;;4.60;;
24901;SDS011;31328;51.402;0.016;2022-12-07T11:43:21;8.30;;;4.57;;
24901;SDS011;31328;51.402;0.016;2022-12-07T11:45:46;8.37;;;4.40;;
24901;SDS011;31328;51.402;0.016;2022-12-07T11:48:22;8.93;;;4.70;;
24901;SDS011;31328;51.402;0.016;2022-12-07T11:50:59;8.97;;;4.23;;
24901;SDS011;31328;51.402;0.016;2022-12-07T11:56:00;7.90;;;4.43;;
24901;SDS011;31328;51.402;0.016;2022-12-07T12:01:29;7.40;;;4.07;;
24901;SDS011;31328;51.402;0.016;2022-12-07T12:09:23;16.20;;;5.03;;
24901;SDS011;31328;51.402;0.016;2022-12-07T12:14:51;10.77;;;5.30;;
24901;SDS011;31328;51.402;0.016;2022-12-07T12:20:26;12.20;;;4.70;;
24901;SDS011;31328;51.402;0.016;2022-12-07T12:25:46;9.23;;;5.27;;
24901;SDS011;31328;51.402;0.016;2022-12-07T12:59:29;10.23;;;5.07;;
24901;SDS011;31328;51.402;0.016;2022-12-07T13:10:21;9.23;;;4.53;;
24901;SDS011;31328;51.402;0.016;2022-12-07T13:20:47;11.00;;;5.77;;
24901;SDS011;31328;51.402;0.016;2022-12-07T13:23:16;9.17;;;5.63;;
24901;SDS011;31328;51.402;0.016;2022-12-07T13:25:51;9.67;;;5.20;;
24901;SDS011;31328;51.402;0.016;2022-12-07T13:28:48;12.27;;;8.15;;
24901;SDS011;31328;51.402;0.016;2022-12-07T13:34:00;8.40;;;5.80;;
24901;SDS011;31328;51.402;0.016;2022-12-07T13:37:02;11.63;;;5.97;;
24901;SDS011;31328;51.402;0.016;2022-12-07T13:39:21;9.30;;;5.60;;
24901;SDS011;31328;51.402;0.016;2022-12-07T13:41:50;12.03;;;5.60;;
24901;SDS011;31328;51.402;0.016;2022-12-07T13:44:23;8.60;;;4.80;;
24901;SDS011;31328;51.402;0.016;2022-12-07T13:49:31;8.83;;;4.60;;
24901;SDS011;31328;51.402;0.016;2022-12-07T13:52:18;9.17;;;4.73;;
24901;SDS011;31328;51.402;0.016;2022-12-07T13:57:21;9.20;;;4.57;;
24901;SDS011;31328;51.402;0.016;2022-12-07T13:59:49;9.07;;;3.97;;
24901;SDS011;31328;51.402;0.016;2022-12-07T14:02:20;10.00;;;4.67;;
24901;SDS011;31328;51.402;0.016;2022-12-07T14:07:55;9.67;;;3.43;;
24901;SDS011;31328;51.402;0.016;2022-12-07T14:10:26;9.40;;;4.00;;
24901;SDS011;31328;51.402;0.016;2022-12-07T14:12:56;6.53;;;3.40;;
24901;SDS011;31328;51.402;0.016;2022-12-07T14:15:25;10.33;;;3.70;;
24901;SDS011;31328;51.402;0.016;2022-12-07T14:17:55;8.27;;;3.23;;
24901;SDS011;31328;51.402;0.016;2022-12-07T14:20:35;5.33;;;2.70;;
24901;SDS011;31328;51.402;0.016;2022-12-07T14:23:03;7.03;;;3.03;;
24901;SDS011;31328;51.402;0.016;2022-12-07T14:25:46;5.87;;;2.97;;
24901;SDS011;31328;51.402;0.016;2022-12-07T14:28:27;6.63;;;2.80;;
24901;SDS011;31328;51.402;0.016;2022-12-07T14:30:55;6.90;;;3.60;;
24901;SDS011;31328;51.402;0.016;2022-12-07T14:33:21;7.13;;;4.00;;
24901;SDS011;31328;51.402;0.016;2022-12-07T14:35:49;7.67;;;3.17;;
24901;SDS011;31328;51.402;0.016;2022-12-07T14:38:16;6.70;;;3.37;;
24901;SDS011;31328;51.402;0.016;2022-12-07T14:40:44;7.33;;;3.20;;
24901;SDS011;31328;51.402;0.016;2022-12-07T14:43:11;9.57;;;3.60;;
24901;SDS011;31328;51.402;0.016;2022-12-07T14:45:39;7.60;;;3.70;;
24901;SDS011;31328;51.402;0.016;2022-12-07T14:48:15;7.40;;;3.40;;
24901;SDS011;31328;51.402;0.016;2022-12-07T14:50:45;7.13;;;3.50;;
24901;SDS011;31328;51.402;0.016;2022-12-07T14:55:46;8.17;;;3.30;;
24901;SDS011;31328;51.402;0.016;2022-12-07T14:58:16;6.60;;;3.30;;
24901;SDS011;31328;51.402;0.016;2022-12-07T15:00:43;9.67;;;3.60;;
24901;SDS011;31328;51.402;0.016;2022-12-07T15:03:10;9.30;;;3.80;;
24901;SDS011;31328;51.402;0.016;2022-12-07T15:05:36;7.77;;;3.73;;
24901;SDS011;31328;51.402;0.016;2022-12-07T15:08:03;6.13;;;3.80;;
24901;SDS011;31328;51.402;0.016;2022-12-07T15:10:31;9.30;;;4.17;;
24901;SDS011;31328;51.402;0.016;2022-12-07T15:13:01;10.63;;;4.87;;
24901;SDS011;31328;51.402;0.016;2022-12-07T15:15:48;8.60;;;3.67;;
24901;SDS011;31328;51.402;0.016;2022-12-07T15:18:15;8.27;;;3.70;;
24901;SDS011;31328;51.402;0.016;2022-12-07T15:20:43;8.83;;;4.37;;
24901;SDS011;31328;51.402;0.016;2022-12-07T15:23:10;7.83;;;3.47;;
24901;SDS011;31328;51.402;0.016;2022-12-07T15:25:40;7.47;;;3.70;;
24901;SDS011;31328;51.402;0.016;2022-12-07T15:28:09;8.97;;;4.23;;
24901;SDS011;31328;51.402;0.016;2022-12-07T15:30:39;12.53;;;4.67;;
24901;SDS011;31328;51.402;0.016;2022-12-07T15:33:08;9.17;;;3.80;;
24901;SDS011;31328;51.402;0.016;2022-12-07T15:35:42;7.70;;;4.00;;
24901;SDS011;31328;51.402;0.016;2022-12-07T15:38:10;8.77;;;3.70;;
24901;SDS011;31328;51.402;0.016;2022-12-07T15:40:37;6.07;;;4.03;;
24901;SDS011;31328;51.402;0.016;2022-12-07T15:43:04;8.13;;;3.33;;
24901;SDS011;31328;51.402;0.016;2022-12-07T15:45:30;8.33;;;4.00;;
24901;SDS011;31328;51.402;0.016;2022-12-07T15:47:57;8.83;;;3.67;;
24901;SDS011;31328;51.402;0.016;2022-12-07T15:50:23;8.43;;;4.87;;
24901;SDS011;31328;51.402;0.016;2022-12-07T15:52:50;10.07;;;4.13;;
24901;SDS011;31328;51.402;0.016;2022-12-07T15:55:16;9.63;;;4.23;;
24901;SDS011;31328;51.402;0.016;2022-12-07T15:57:42;6.77;;;3.93;;
24901;SDS011;31328;51.402;0.016;2022-12-07T16:00:09;6.70;;;3.90;;
24901;SDS011;31328;51.402;0.016;2022-12-07T16:02:36;8.67;;;3.60;;
24901;SDS011;31328;51.402;0.016;2022-12-07T16:05:03;9.83;;;4.63;;
24901;SDS011;31328;51.402;0.016;2022-12-07T16:07:29;8.77;;;3.90;;
24901;SDS011;31328;51.402;0.016;2022-12-07T16:09:56;9.60;;;4.13;;
24901;SDS011;31328;51.402;0.016;2022-12-07T16:12:22;7.27;;;3.70;;
24901;SDS011;31328;51.402;0.016;2022-12-07T16:14:50;7.87;;;3.90;;
24901;SDS011;31328;51.402;0.016;2022-12-07T16:17:16;7.20;;;3.77;;
24901;SDS011;31328;51.402;0.016;2022-12-07T16:19:43;6.37;;;3.63;;
24901;SDS011;31328;51.402;0.016;2022-12-07T16:22:09;7.10;;;3.70;;
24901;SDS011;31328;51.402;0.016;2022-12-07T16:24:35;10.80;;;4.43;;
24901;SDS011;31328;51.402;0.016;2022-12-07T16:27:02;9.63;;;4.20;;
24901;SDS011;31328;51.402;0.016;2022-12-07T16:29:28;7.90;;;4.33;;
24901;SDS011;31328;51.402;0.016;2022-12-07T16:31:54;6.43;;;3.97;;
24901;SDS011;31328;51.402;0.016;2022-12-07T16:34:20;9.13;;;4.63;;
24901;SDS011;31328;51.402;0.016;2022-12-07T16:36:47;8.47;;;4.50;;
24901;SDS011;31328;51.402;0.016;2022-12-07T16:39:13;10.23;;;4.40;;
24901;SDS011;31328;51.402;0.016;2022-12-07T16:41:39;7.23;;;4.87;;
24901;SDS011;31328;51.402;0.016;2022-12-07T16:44:07;9.03;;;5.27;;
24901;SDS011;31328;51.402;0.016;2022-12-07T16:46:35;8.10;;;4.93;;
24901;SDS011;31328;51.402;0.016;2022-12-07T16:49:02;11.23;;;5.50;;
24901;SDS011;31328;51.402;0.016;2022-12-07T16:51:29;7.93;;;4.93;;
24901;SDS011;31328;51.402;0.016;2022-12-07T16:53:56;8.73;;;5.40;;
24901;SDS011;31328;51.402;0.016;2022-12-07T16:56:22;10.87;;;5.53;;
24901;SDS011;31328;51.402;0.016;2022-12-07T16:58:48;10.90;;;4.80;;
24901;SDS011;31328;51.402;0.016;2022-12-07T17:01:16;6.67;;;4.33;;
24901;SDS011;31328;51.402;0.016;2022-12-07T17:03:45;10.20;;;4.60;;
24901;SDS011;31328;51.402;0.016;2022-12-07T17:06:13;11.43;;;4.80;;
24901;SDS011;31328;51.402;0.016;2022-12-07T17:08:43;8.33;;;5.23;;
24901;SDS011;31328;51.402;0.016;2022-12-07T17:11:11;10.27;;;5.10;;